Terminal Aerodrome Forecast
Issued by NWS

Home | Current Version | Previous Version | Text Only | Print | Product List | Glossary On
Versions: 1 2 3 4 5 6 7 8 9 10 11 12 13 14 15 16 17 18 19 20
000
FTUS43 KICT 250520
TAFCNU
TAF
KCNU 250520Z 2506/2606 VRB05KT P6SM SCT025 BKN070
      TEMPO 2506/2509 3SM BR BKN015 OVC025
     FM250900 VRB05KT 3SM BR SCT004 BKN015
      TEMPO 2511/2513 1 1/2SM BR BKN004 OVC015
     FM251500 17010KT P6SM BKN010
     FM251900 18015G23KT P6SM SCT030=

USA.gov is the U.S. government's official web portal to all federal, state and local government web resources and services.